Time;durP1;ratioP1;P1;durP2;ratioP2;P2;SDS_P1;SDS_P2;PMS_P1;PMS_P2;Temp;Humidity;BMP_temperature;BMP_pressure;BME280_temperature;BME280_humidity;BME280_pressure;Samples;Min_cycle;Max_cycle;Signal;HPM_P1;HPM_P2
2021/05/12 00:02:26;;;;;;;0.30;0.30;;;12.10;64.60;;;;;;5011387;28;20053;-66
2021/05/12 00:04:52;;;;;;;0.43;0.40;;;12.20;64.50;;;;;;5011222;28;20089;-66
2021/05/12 00:07:18;;;;;;;0.43;0.43;;;12.10;64.70;;;;;;5012005;28;20451;-66
2021/05/12 00:09:45;;;;;;;0.38;0.38;;;12.10;64.90;;;;;;5011710;28;20050;-66
2021/05/12 00:12:11;;;;;;;0.40;0.40;;;12.20;64.90;;;;;;5012066;28;20160;-66
2021/05/12 00:14:38;;;;;;;0.38;0.28;;;12.20;65.00;;;;;;5011667;28;20143;-66
2021/05/12 00:17:05;;;;;;;1.02;0.60;;;12.20;65.30;;;;;;5011978;28;20129;-66
2021/05/12 00:19:34;;;;;;;0.52;0.52;;;12.10;65.40;;;;;;5011146;28;20128;-66
2021/05/12 00:24:37;;;;;;;0.35;0.32;;;12.10;65.50;;;;;;5013753;28;20049;-66
2021/05/12 00:27:04;;;;;;;0.60;0.57;;;12.10;65.80;;;;;;5015662;28;20115;-66
2021/05/12 00:29:30;;;;;;;0.45;0.45;;;12.00;65.80;;;;;;5015555;28;20161;-66
2021/05/12 00:31:57;;;;;;;0.70;0.55;;;12.00;65.70;;;;;;5014827;28;20463;-66
2021/05/12 00:34:23;;;;;;;0.40;0.40;;;12.00;65.80;;;;;;5015279;28;20121;-66
2021/05/12 00:36:49;;;;;;;0.50;0.50;;;12.10;65.70;;;;;;5015164;28;20132;-66
2021/05/12 00:39:15;;;;;;;0.52;0.45;;;12.10;65.90;;;;;;5015504;28;20046;-66
2021/05/12 00:41:42;;;;;;;0.63;0.60;;;12.00;66.00;;;;;;5015463;28;20097;-66
2021/05/12 00:44:20;;;;;;;1.20;0.60;;;11.90;66.60;;;;;;5001466;28;20073;-66
2021/05/12 00:46:48;;;;;;;0.70;0.60;;;11.80;67.20;;;;;;5014667;28;20504;-66
2021/05/12 00:49:14;;;;;;;0.50;0.50;;;11.60;67.90;;;;;;5014819;28;20091;-66
2021/05/12 00:51:41;;;;;;;0.90;0.70;;;11.50;68.40;;;;;;5014740;28;20137;-66
2021/05/12 00:54:08;;;;;;;0.60;0.50;;;11.50;68.20;;;;;;5014880;28;20129;-66
2021/05/12 00:56:38;;;;;;;0.88;0.60;;;11.50;68.70;;;;;;5014764;28;20598;-66
2021/05/12 00:59:04;;;;;;;0.98;0.60;;;11.40;69.10;;;;;;5014872;28;20050;-66
2021/05/12 01:01:30;;;;;;;0.60;0.50;;;11.40;68.80;;;;;;5014443;28;20131;-66
2021/05/12 01:03:57;;;;;;;0.80;0.68;;;11.50;68.90;;;;;;5014571;28;20096;-66
2021/05/12 01:06:27;;;;;;;0.82;0.60;;;11.50;69.10;;;;;;5014546;28;20413;-66
2021/05/12 01:08:53;;;;;;;1.08;0.70;;;11.40;69.40;;;;;;5014571;28;20042;-66
2021/05/12 01:11:20;;;;;;;1.05;0.70;;;11.20;70.10;;;;;;5014415;28;20038;-66
2021/05/12 01:13:46;;;;;;;0.93;0.68;;;11.10;70.80;;;;;;5014572;28;20125;-66
2021/05/12 01:16:14;;;;;;;1.23;0.90;;;11.00;71.20;;;;;;5014170;28;20169;-66
2021/05/12 01:18:40;;;;;;;0.82;0.63;;;10.90;71.70;;;;;;5014366;28;20164;-66
2021/05/12 01:21:09;;;;;;;0.90;0.73;;;10.70;73.10;;;;;;5014299;28;20085;-66
2021/05/12 01:23:38;;;;;;;0.70;0.70;;;10.60;73.10;;;;;;5014272;28;20104;-66
2021/05/12 01:26:10;;;;;;;1.38;0.80;;;10.60;73.60;;;;;;5014469;28;20049;-66
2021/05/12 01:28:39;;;;;;;0.60;0.60;;;10.50;74.30;;;;;;5014281;28;20129;-66
2021/05/12 01:31:06;;;;;;;1.10;0.73;;;10.40;74.50;;;;;;5014003;28;20123;-66
2021/05/12 01:33:33;;;;;;;0.90;0.75;;;10.40;74.60;;;;;;5013909;28;20128;-66
2021/05/12 01:36:00;;;;;;;0.90;0.65;;;10.40;74.90;;;;;;5013473;28;20491;-66
2021/05/12 01:38:28;;;;;;;1.25;0.80;;;10.30;75.20;;;;;;5013829;28;20050;-66
2021/05/12 01:40:55;;;;;;;0.85;0.80;;;10.30;75.40;;;;;;5014284;28;20054;-66
2021/05/12 01:43:21;;;;;;;0.98;0.80;;;10.20;75.50;;;;;;5014240;28;20133;-68
2021/05/12 01:45:49;;;;;;;1.27;0.77;;;10.30;75.40;;;;;;5013673;28;20211;-66
2021/05/12 01:48:16;;;;;;;0.95;0.60;;;10.20;75.70;;;;;;5011130;28;20042;-65
2021/05/12 01:50:43;;;;;;;1.13;0.75;;;10.20;75.80;;;;;;5013671;28;20050;-66
2021/05/12 01:53:11;;;;;;;0.70;0.70;;;10.20;75.60;;;;;;5009926;28;20065;-65
2021/05/12 01:55:38;;;;;;;0.82;0.60;;;10.20;75.70;;;;;;4994477;28;20042;-65
2021/05/12 01:58:04;;;;;;;1.45;0.82;;;10.20;75.50;;;;;;5007428;28;20181;-66
2021/05/12 02:00:41;;;;;;;1.80;0.88;;;10.20;75.50;;;;;;4993734;28;20076;-66
2021/05/12 02:03:08;;;;;;;0.65;0.52;;;10.20;75.50;;;;;;5012357;28;20137;-66
2021/05/12 02:05:37;;;;;;;1.02;0.70;;;10.20;75.50;;;;;;5013447;28;20590;-68
2021/05/12 02:08:05;;;;;;;0.60;0.60;;;10.20;75.30;;;;;;4996321;28;20038;-65
2021/05/12 02:10:32;;;;;;;0.50;0.50;;;10.20;75.40;;;;;;5000490;28;20136;-66
2021/05/12 02:12:59;;;;;;;0.95;0.70;;;10.20;75.30;;;;;;5013173;28;20048;-66
2021/05/12 02:15:26;;;;;;;1.30;0.73;;;10.20;75.20;;;;;;5013633;28;20046;-66
2021/05/12 02:17:52;;;;;;;0.77;0.63;;;10.20;75.30;;;;;;5013057;28;20188;-65
2021/05/12 02:20:29;;;;;;;0.88;0.57;;;10.20;75.10;;;;;;5013444;28;20050;-66
2021/05/12 02:22:56;;;;;;;0.60;0.60;;;10.20;75.00;;;;;;5012661;28;20559;-65
2021/05/12 02:25:23;;;;;;;0.68;0.60;;;10.20;74.80;;;;;;4998785;28;20128;-65
2021/05/12 02:27:49;;;;;;;0.85;0.80;;;10.20;74.60;;;;;;4995756;28;20068;-66
2021/05/12 02:30:16;;;;;;;1.38;0.80;;;10.20;74.80;;;;;;4997849;28;20041;-66
2021/05/12 02:32:43;;;;;;;0.73;0.70;;;10.20;74.90;;;;;;4995931;28;20054;-66
2021/05/12 02:35:11;;;;;;;0.50;0.50;;;10.20;75.00;;;;;;4997469;28;20100;-66
2021/05/12 02:37:38;;;;;;;0.80;0.60;;;10.20;75.30;;;;;;4996176;28;20123;-66
2021/05/12 02:40:10;;;;;;;0.47;0.40;;;10.20;75.30;;;;;;4995718;28;20064;-66
2021/05/12 02:42:37;;;;;;;0.70;0.55;;;10.20;75.20;;;;;;4995306;28;20050;-66
2021/05/12 02:45:05;;;;;;;0.80;0.65;;;10.20;75.10;;;;;;4995044;28;20200;-65
2021/05/12 02:47:32;;;;;;;1.00;0.70;;;10.20;74.90;;;;;;4997457;28;20057;-66
2021/05/12 02:49:58;;;;;;;0.60;0.50;;;10.30;75.20;;;;;;4995536;28;20126;-65
2021/05/12 02:52:24;;;;;;;0.65;0.45;;;10.30;75.10;;;;;;4997550;28;20402;-65
2021/05/12 02:54:51;;;;;;;0.70;0.70;;;10.20;75.00;;;;;;5004159;28;20046;-66
2021/05/12 02:57:18;;;;;;;1.30;0.70;;;10.20;75.20;;;;;;5007262;28;20519;-66
2021/05/12 02:59:44;;;;;;;0.57;0.50;;;10.20;75.10;;;;;;4993280;28;20045;-66
2021/05/12 03:02:10;;;;;;;0.55;0.55;;;10.30;75.00;;;;;;5005804;28;20089;-66
2021/05/12 03:04:37;;;;;;;0.98;0.63;;;10.30;75.10;;;;;;5012396;28;20516;-66
2021/05/12 03:07:03;;;;;;;0.55;0.55;;;10.30;75.20;;;;;;5012554;28;20050;-66
2021/05/12 03:09:29;;;;;;;1.10;0.70;;;10.30;75.10;;;;;;5012412;28;20628;-66
2021/05/12 03:11:56;;;;;;;0.57;0.57;;;10.30;75.10;;;;;;5012327;28;20464;-66
2021/05/12 03:14:22;;;;;;;0.43;0.40;;;10.30;75.10;;;;;;5012278;28;20054;-66
2021/05/12 03:16:48;;;;;;;0.60;0.45;;;10.30;74.80;;;;;;5003235;28;20177;-66
2021/05/12 03:19:16;;;;;;;0.90;0.60;;;10.40;74.70;;;;;;5005996;28;20084;-66
2021/05/12 03:21:42;;;;;;;1.08;0.70;;;10.40;74.70;;;;;;5012335;28;20061;-66
2021/05/12 03:24:09;;;;;;;1.02;0.65;;;10.50;74.70;;;;;;5012211;28;20136;-66
2021/05/12 03:26:35;;;;;;;0.75;0.55;;;10.40;74.70;;;;;;5011241;28;20180;-66
2021/05/12 03:29:04;;;;;;;0.65;0.47;;;10.40;74.70;;;;;;5011272;28;20132;-66
2021/05/12 03:31:31;;;;;;;0.77;0.60;;;10.40;74.70;;;;;;5009153;28;20053;-66
2021/05/12 03:33:57;;;;;;;0.52;0.50;;;10.40;75.10;;;;;;5012478;28;20050;-66
2021/05/12 03:36:25;;;;;;;1.17;0.65;;;10.20;75.30;;;;;;5012049;28;20046;-66
2021/05/12 03:38:52;;;;;;;0.95;0.70;;;10.30;75.40;;;;;;5012137;28;20054;-66
2021/05/12 03:41:19;;;;;;;0.60;0.60;;;10.20;75.70;;;;;;5010715;28;20125;-65
2021/05/12 03:43:45;;;;;;;0.82;0.60;;;10.30;75.80;;;;;;5011393;28;20054;-66
2021/05/12 03:46:11;;;;;;;0.70;0.70;;;10.20;76.20;;;;;;5012014;28;20123;-66
2021/05/12 03:48:37;;;;;;;0.70;0.60;;;10.20;76.20;;;;;;5012019;28;20120;-66
2021/05/12 03:51:04;;;;;;;0.60;0.60;;;10.20;76.10;;;;;;5011956;28;20049;-66
2021/05/12 03:53:30;;;;;;;0.60;0.60;;;10.20;76.30;;;;;;5011786;28;20053;-66
2021/05/12 03:55:57;;;;;;;0.70;0.52;;;10.20;76.20;;;;;;5006667;28;20510;-66
2021/05/12 03:58:23;;;;;;;0.82;0.60;;;10.20;76.40;;;;;;5002250;28;20129;-65
2021/05/12 04:00:50;;;;;;;0.40;0.40;;;10.20;76.60;;;;;;5000306;28;20058;-66
2021/05/12 04:03:17;;;;;;;1.02;0.70;;;10.30;76.80;;;;;;5015952;28;20061;-66
2021/05/12 04:05:43;;;;;;;0.60;0.50;;;10.30;77.00;;;;;;5015684;28;20147;-66
2021/05/12 04:08:09;;;;;;;0.80;0.55;;;10.30;76.80;;;;;;5015664;28;20405;-66
2021/05/12 04:10:36;;;;;;;0.77;0.60;;;10.30;76.80;;;;;;5015354;28;20140;-66
2021/05/12 04:13:02;;;;;;;1.35;0.80;;;10.30;77.20;;;;;;5015485;28;20046;-66
2021/05/12 04:15:29;;;;;;;0.55;0.52;;;10.20;77.60;;;;;;5015902;28;20355;-66
2021/05/12 04:17:55;;;;;;;1.20;0.70;;;10.30;77.80;;;;;;5014563;28;20053;-66
2021/05/12 04:20:22;;;;;;;0.75;0.75;;;10.30;78.00;;;;;;5015952;28;20095;-66
2021/05/12 04:22:48;;;;;;;0.82;0.70;;;10.30;77.60;;;;;;5015608;28;20132;-65
2021/05/12 04:25:21;;;;;;;0.70;0.60;;;10.30;77.70;;;;;;5015331;28;20855;-65
2021/05/12 04:27:48;;;;;;;0.73;0.60;;;10.40;77.60;;;;;;5015527;28;20069;-66
2021/05/12 04:30:17;;;;;;;0.70;0.70;;;10.40;77.60;;;;;;5014667;28;20065;-65
2021/05/12 04:32:45;;;;;;;1.00;0.70;;;10.50;77.40;;;;;;5008222;28;20486;-65
2021/05/12 04:35:16;;;;;;;0.60;0.60;;;10.50;77.20;;;;;;5008208;28;20091;-65
2021/05/12 04:37:43;;;;;;;0.60;0.60;;;10.50;77.30;;;;;;5012700;28;20176;-65
2021/05/12 04:40:10;;;;;;;0.50;0.50;;;10.50;77.00;;;;;;5014236;28;20050;-65
2021/05/12 04:42:36;;;;;;;0.60;0.60;;;10.60;77.10;;;;;;5015014;28;20553;-65
2021/05/12 04:45:05;;;;;;;0.50;0.50;;;10.60;77.10;;;;;;5014140;28;20513;-63
2021/05/12 04:47:32;;;;;;;0.90;0.70;;;10.70;76.80;;;;;;5007339;28;20062;-64
2021/05/12 04:49:58;;;;;;;1.08;0.70;;;10.70;77.10;;;;;;4995685;28;20062;-64
2021/05/12 04:52:24;;;;;;;0.70;0.47;;;10.60;77.10;;;;;;5000354;28;20049;-63
2021/05/12 04:54:51;;;;;;;0.70;0.70;;;10.60;77.30;;;;;;5014672;28;20124;-65
2021/05/12 04:57:17;;;;;;;0.68;0.50;;;10.60;77.20;;;;;;5013982;28;20074;-65
2021/05/12 04:59:44;;;;;;;0.60;0.60;;;10.70;77.20;;;;;;5014361;28;20096;-65
2021/05/12 05:02:12;;;;;;;0.70;0.70;;;10.70;77.40;;;;;;5011710;28;20200;-65
2021/05/12 05:04:40;;;;;;;0.98;0.68;;;10.50;77.50;;;;;;5013995;28;20517;-65
2021/05/12 05:07:07;;;;;;;0.93;0.60;;;10.60;77.50;;;;;;5013114;28;20057;-65
2021/05/12 05:09:35;;;;;;;0.93;0.60;;;10.50;78.10;;;;;;5011589;28;20099;-64
2021/05/12 05:12:02;;;;;;;0.80;0.57;;;10.50;78.10;;;;;;5013664;28;20053;-65
2021/05/12 05:14:28;;;;;;;1.15;0.60;;;10.50;78.20;;;;;;5012349;28;20053;-65
2021/05/12 05:16:55;;;;;;;0.45;0.45;;;10.50;78.40;;;;;;5008752;28;20556;-64
2021/05/12 05:19:21;;;;;;;0.60;0.40;;;10.50;78.40;;;;;;5006960;28;20526;-65
2021/05/12 05:21:49;;;;;;;0.85;0.70;;;10.50;78.70;;;;;;5013870;28;20077;-65
2021/05/12 05:24:15;;;;;;;1.60;0.63;;;10.40;79.10;;;;;;4997890;28;20129;-65
2021/05/12 05:26:42;;;;;;;1.02;0.63;;;10.30;79.80;;;;;;5003908;28;20050;-65
2021/05/12 05:29:08;;;;;;;0.50;0.50;;;10.20;79.90;;;;;;5008447;28;20129;-66
2021/05/12 05:31:34;;;;;;;0.60;0.60;;;10.30;79.70;;;;;;5003151;28;20473;-66
2021/05/12 05:34:01;;;;;;;0.40;0.40;;;10.30;79.70;;;;;;4999035;28;20065;-65
2021/05/12 05:36:27;;;;;;;0.65;0.60;;;10.40;79.60;;;;;;4997565;28;20549;-64
2021/05/12 05:38:53;;;;;;;0.70;0.52;;;10.40;79.80;;;;;;4997484;28;20116;-63
2021/05/12 05:41:19;;;;;;;1.25;0.70;;;10.40;80.00;;;;;;4997757;28;20054;-63
2021/05/12 05:43:46;;;;;;;0.60;0.50;;;10.60;79.90;;;;;;5012707;28;20050;-64
2021/05/12 05:46:13;;;;;;;0.95;0.70;;;10.70;79.50;;;;;;5010109;28;20050;-64
2021/05/12 05:48:39;;;;;;;0.70;0.52;;;10.70;79.50;;;;;;5004692;28;20045;-63
2021/05/12 05:51:06;;;;;;;0.80;0.60;;;10.70;79.60;;;;;;5012626;28;20041;-63
2021/05/12 05:53:32;;;;;;;0.60;0.60;;;10.70;79.20;;;;;;5012741;28;20046;-64
2021/05/12 05:55:58;;;;;;;1.30;0.70;;;10.80;78.90;;;;;;5006436;28;20121;-65
2021/05/12 05:58:25;;;;;;;0.40;0.40;;;10.90;79.90;;;;;;5013511;28;20073;-65
2021/05/12 06:00:51;;;;;;;1.00;0.50;;;10.90;78.60;;;;;;5013012;28;20172;-64
2021/05/12 06:03:17;;;;;;;0.90;0.70;;;11.00;78.50;;;;;;5008747;28;20567;-63
2021/05/12 06:05:46;;;;;;;0.65;0.60;;;11.10;78.50;;;;;;4995480;28;20509;-64
2021/05/12 06:08:13;;;;;;;0.43;0.43;;;11.20;77.90;;;;;;4997486;28;20049;-63
2021/05/12 06:10:39;;;;;;;0.60;0.60;;;11.20;78.00;;;;;;4999847;28;20405;-63
2021/05/12 06:13:05;;;;;;;0.50;0.50;;;11.10;77.90;;;;;;4996014;28;20117;-63
2021/05/12 06:15:32;;;;;;;0.60;0.60;;;10.90;78.50;;;;;;4994542;28;20046;-63
2021/05/12 06:17:58;;;;;;;0.90;0.60;;;10.70;79.70;;;;;;4996583;28;20133;-63
2021/05/12 06:20:24;;;;;;;0.75;0.50;;;10.70;80.10;;;;;;4999040;28;20172;-63
2021/05/12 06:23:00;;;;;;;0.57;0.57;;;10.80;80.00;;;;;;4999830;28;20053;-64
2021/05/12 06:25:26;;;;;;;0.55;0.50;;;10.80;80.00;;;;;;5008509;28;20498;-63
2021/05/12 06:27:53;;;;;;;1.20;0.60;;;10.80;80.80;;;;;;5000253;28;20050;-63
2021/05/12 06:30:19;;;;;;;0.82;0.60;;;10.70;82.40;;;;;;5004390;28;20053;-63
2021/05/12 06:32:47;;;;;;;0.88;0.55;;;10.70;82.00;;;;;;4993958;28;20046;-63
2021/05/12 06:35:13;;;;;;;0.88;0.60;;;10.70;82.10;;;;;;4999562;28;20050;-63
2021/05/12 06:37:40;;;;;;;0.52;0.52;;;10.70;82.50;;;;;;5008562;28;20064;-63
2021/05/12 06:40:07;;;;;;;0.52;0.50;;;10.70;82.20;;;;;;5003730;28;20052;-63
2021/05/12 06:42:33;;;;;;;1.15;0.70;;;10.90;82.10;;;;;;5010603;28;20517;-64
2021/05/12 06:44:59;;;;;;;0.60;0.50;;;10.90;82.10;;;;;;5012373;28;20100;-64
2021/05/12 06:47:26;;;;;;;0.63;0.50;;;10.90;82.20;;;;;;5012295;28;20046;-63
2021/05/12 06:49:52;;;;;;;0.47;0.47;;;10.90;82.30;;;;;;5003286;28;20096;-63
2021/05/12 06:52:18;;;;;;;0.50;0.50;;;11.00;82.40;;;;;;5011521;28;20421;-64
2021/05/12 06:54:45;;;;;;;0.88;0.50;;;10.90;82.90;;;;;;5012185;28;20091;-64
2021/05/12 06:57:11;;;;;;;0.73;0.52;;;10.90;83.20;;;;;;5012254;28;20077;-63
2021/05/12 06:59:37;;;;;;;0.50;0.47;;;10.90;83.10;;;;;;5002650;28;20129;-63
2021/05/12 07:02:04;;;;;;;0.70;0.60;;;11.00;83.30;;;;;;4999347;28;20108;-63
2021/05/12 07:04:30;;;;;;;0.85;0.40;;;11.00;83.20;;;;;;5009497;28;20493;-63
2021/05/12 07:06:56;;;;;;;0.40;0.40;;;11.10;83.00;;;;;;5005138;28;20054;-63
2021/05/12 07:09:22;;;;;;;0.32;0.32;;;11.10;83.30;;;;;;5009104;28;20463;-63
2021/05/12 07:11:50;;;;;;;0.70;0.50;;;11.00;83.50;;;;;;5009723;28;20054;-64
2021/05/12 07:14:16;;;;;;;0.52;0.43;;;11.00;83.90;;;;;;5005574;28;20104;-64
2021/05/12 07:16:42;;;;;;;0.50;0.50;;;10.90;84.10;;;;;;4996782;28;20050;-64
2021/05/12 07:19:08;;;;;;;0.68;0.50;;;10.90;84.40;;;;;;4996707;28;20498;-64
2021/05/12 07:21:35;;;;;;;0.63;0.60;;;11.00;84.50;;;;;;4996712;28;20061;-64
2021/05/12 07:24:01;;;;;;;0.60;0.50;;;11.00;85.10;;;;;;4996936;28;20125;-64
2021/05/12 07:26:28;;;;;;;0.38;0.38;;;10.90;85.50;;;;;;5006419;28;20140;-64
2021/05/12 07:28:54;;;;;;;0.77;0.50;;;10.90;85.90;;;;;;4993331;28;20081;-64
2021/05/12 07:31:21;;;;;;;0.30;0.30;;;10.90;85.80;;;;;;4993348;28;20050;-64
2021/05/12 07:33:47;;;;;;;0.35;0.35;;;10.90;85.80;;;;;;4999024;28;20050;-64
2021/05/12 07:36:14;;;;;;;0.50;0.50;;;10.80;86.70;;;;;;5000449;28;20125;-64
2021/05/12 07:38:40;;;;;;;0.47;0.40;;;10.90;86.60;;;;;;4996663;28;20053;-64
2021/05/12 07:41:06;;;;;;;0.40;0.40;;;10.90;86.90;;;;;;4996191;28;20153;-64
2021/05/12 07:43:33;;;;;;;0.40;0.40;;;10.90;87.00;;;;;;5007164;28;20053;-64
2021/05/12 07:46:00;;;;;;;0.50;0.40;;;10.90;87.30;;;;;;5010787;28;20129;-64
2021/05/12 07:48:26;;;;;;;0.68;0.45;;;11.00;87.00;;;;;;5001480;28;20116;-64
2021/05/12 07:50:53;;;;;;;0.35;0.32;;;11.00;86.70;;;;;;5009892;28;20057;-64
2021/05/12 07:53:20;;;;;;;0.82;0.63;;;11.00;86.70;;;;;;5000933;28;20042;-64
2021/05/12 07:55:46;;;;;;;0.30;0.30;;;11.10;86.80;;;;;;5006851;28;20043;-64
2021/05/12 07:58:13;;;;;;;0.55;0.50;;;11.10;86.90;;;;;;4992163;28;20050;-64
2021/05/12 08:00:41;;;;;;;0.40;0.40;;;11.10;86.50;;;;;;5010496;28;20050;-64
2021/05/12 08:03:08;;;;;;;0.68;0.47;;;11.20;86.60;;;;;;5010607;28;20045;-64
2021/05/12 08:05:34;;;;;;;0.45;0.43;;;11.20;86.50;;;;;;5008242;28;20141;-64
2021/05/12 08:08:00;;;;;;;0.65;0.43;;;11.20;86.30;;;;;;5005976;28;20544;-64
2021/05/12 08:10:27;;;;;;;0.75;0.50;;;11.20;86.50;;;;;;5005955;28;20064;-67
2021/05/12 08:12:53;;;;;;;0.50;0.50;;;11.20;87.00;;;;;;5007533;28;20049;-67
2021/05/12 08:15:20;;;;;;;0.40;0.40;;;11.30;87.00;;;;;;5007381;28;20077;-69
2021/05/12 08:17:47;;;;;;;0.40;0.40;;;11.30;86.90;;;;;;5003344;28;20054;-67
2021/05/12 08:20:13;;;;;;;0.35;0.35;;;11.30;86.50;;;;;;5007574;28;20053;-67
2021/05/12 08:22:39;;;;;;;0.60;0.40;;;11.40;86.50;;;;;;5004110;28;20058;-67
2021/05/12 08:25:06;;;;;;;0.30;0.30;;;11.40;86.20;;;;;;5007340;28;20141;-67
2021/05/12 08:27:33;;;;;;;0.20;0.20;;;11.40;86.10;;;;;;5008996;28;20133;-67
2021/05/12 08:30:00;;;;;;;0.35;0.30;;;11.40;85.80;;;;;;5004877;28;20100;-67
2021/05/12 08:32:27;;;;;;;0.30;0.30;;;11.40;86.30;;;;;;5006283;28;20497;-64
2021/05/12 08:34:56;;;;;;;0.30;0.30;;;11.50;86.00;;;;;;5002957;28;20133;-67
2021/05/12 08:37:23;;;;;;;0.30;0.30;;;11.50;85.40;;;;;;5006998;28;20589;-64
2021/05/12 08:39:49;;;;;;;0.20;0.20;;;11.60;84.70;;;;;;5003060;28;20486;-64
2021/05/12 08:42:16;;;;;;;1.27;0.30;;;11.60;84.70;;;;;;5006820;28;20049;-64
2021/05/12 08:44:45;;;;;;;0.20;0.20;;;11.60;83.70;;;;;;5004074;28;20648;-64
2021/05/12 08:47:16;;;;;;;0.30;0.15;;;11.70;83.70;;;;;;5009517;28;20052;-64
2021/05/12 08:49:43;;;;;;;0.35;0.30;;;11.80;83.30;;;;;;5007410;28;20155;-64
2021/05/12 08:52:10;;;;;;;0.52;0.30;;;11.90;83.40;;;;;;5008664;28;20462;-66
2021/05/12 08:54:37;;;;;;;0.28;0.20;;;12.00;83.00;;;;;;5008948;28;20132;-64
2021/05/12 08:57:04;;;;;;;0.20;0.20;;;12.00;82.20;;;;;;5010961;28;20108;-64
2021/05/12 08:59:30;;;;;;;0.20;0.20;;;12.00;82.10;;;;;;5013504;28;20061;-64
2021/05/12 09:01:57;;;;;;;0.20;0.13;;;12.00;81.70;;;;;;5009819;28;20185;-64
2021/05/12 09:04:23;;;;;;;0.20;0.20;;;12.00;81.40;;;;;;5010391;28;20054;-64
2021/05/12 09:06:51;;;;;;;0.20;0.20;;;11.90;80.60;;;;;;5010014;28;20511;-64
2021/05/12 09:09:17;;;;;;;0.30;0.30;;;11.90;81.80;;;;;;5000813;28;20050;-64
2021/05/12 09:11:43;;;;;;;0.20;0.20;;;11.90;82.30;;;;;;5006730;28;20042;-64
2021/05/12 09:14:27;;;;;;;0.52;0.30;;;12.00;82.10;;;;;;5006892;28;20561;-66
2021/05/12 09:16:53;;;;;;;0.30;0.30;;;12.00;82.40;;;;;;5000697;28;20046;-67
2021/05/12 09:19:23;;;;;;;0.30;0.30;;;12.10;83.10;;;;;;5000941;28;20050;-67
2021/05/12 09:21:57;;;;;;;0.30;0.30;;;12.20;83.10;;;;;;5006750;28;20049;-67
2021/05/12 09:24:28;;;;;;;0.30;0.30;;;12.30;83.30;;;;;;5012700;28;20085;-67
2021/05/12 09:27:00;;;;;;;0.30;0.30;;;12.40;82.50;;;;;;5013067;28;20081;-68
2021/05/12 09:29:28;;;;;;;0.30;0.30;;;12.30;82.60;;;;;;5010554;28;20216;-68
2021/05/12 09:32:12;;;;;;;0.30;0.30;;;12.40;83.00;;;;;;5012498;28;20129;-68
2021/05/12 09:34:48;;;;;;;0.20;0.20;;;12.50;83.20;;;;;;4999332;28;20137;-68
2021/05/12 09:37:23;;;;;;;0.47;0.40;;;12.50;80.80;;;;;;4993803;28;20042;-64
2021/05/12 09:39:50;;;;;;;0.30;0.30;;;12.60;80.60;;;;;;5008278;28;20050;-68
2021/05/12 09:42:21;;;;;;;0.13;0.13;;;12.60;82.40;;;;;;4998839;28;20057;-68
2021/05/12 09:45:06;;;;;;;0.30;0.30;;;12.70;80.40;;;;;;4996901;28;20193;-67
2021/05/12 09:47:33;;;;;;;0.28;0.20;;;12.80;78.50;;;;;;4996489;28;20051;-67
2021/05/12 09:50:06;;;;;;;0.40;0.40;;;12.80;77.60;;;;;;4996824;28;20141;-68
2021/05/12 09:52:32;;;;;;;0.22;0.22;;;12.80;77.80;;;;;;4997939;28;20057;-68
2021/05/12 09:55:00;;;;;;;0.43;0.30;;;12.80;78.60;;;;;;4999974;28;20046;-67
2021/05/12 09:57:27;;;;;;;0.28;0.28;;;12.80;78.20;;;;;;5012258;28;20128;-67
2021/05/12 09:59:54;;;;;;;0.13;0.13;;;12.90;78.40;;;;;;5011404;28;20421;-68
2021/05/12 10:02:20;;;;;;;0.20;0.20;;;13.10;79.10;;;;;;5000698;28;20042;-68
2021/05/12 10:04:49;;;;;;;0.35;0.35;;;13.50;76.40;;;;;;5005916;28;20061;-64
2021/05/12 10:07:17;;;;;;;0.25;0.25;;;13.80;75.50;;;;;;5000484;28;20161;-67
2021/05/12 10:09:47;;;;;;;0.10;0.10;;;13.90;73.70;;;;;;5004935;28;20514;-68
2021/05/12 10:12:20;;;;;;;0.10;0.10;;;13.90;72.00;;;;;;4999760;28;20556;-64
2021/05/12 10:14:58;;;;;;;0.20;0.20;;;13.80;71.80;;;;;;5010328;28;20488;-64
2021/05/12 10:17:26;;;;;;;0.20;0.20;;;13.60;71.90;;;;;;5004506;28;20177;-64
2021/05/12 10:19:54;;;;;;;0.28;0.28;;;13.50;72.20;;;;;;5007450;28;20185;-64
2021/05/12 10:22:21;;;;;;;0.30;0.30;;;13.30;73.70;;;;;;5006205;28;20179;-64
2021/05/12 10:24:49;;;;;;;0.25;0.25;;;13.30;74.60;;;;;;5005418;28;20046;-65
2021/05/12 10:27:27;;;;;;;0.30;0.30;;;13.20;75.30;;;;;;5008040;28;20537;-64
2021/05/12 10:29:56;;;;;;;0.60;0.20;;;13.20;75.30;;;;;;5008402;28;20046;-64
2021/05/12 10:32:37;;;;;;;0.20;0.20;;;13.20;74.70;;;;;;5008143;28;20497;-64
2021/05/12 10:35:08;;;;;;;0.32;0.32;;;13.10;74.80;;;;;;5005981;28;20490;-64
2021/05/12 10:37:41;;;;;;;0.20;0.20;;;13.10;75.00;;;;;;5007560;28;20124;-64
2021/05/12 10:40:16;;;;;;;0.30;0.22;;;13.00;74.20;;;;;;5005598;28;20053;-64
2021/05/12 10:42:56;;;;;;;0.20;0.20;;;13.00;74.20;;;;;;5006883;28;20608;-64
2021/05/12 10:45:31;;;;;;;0.15;0.15;;;13.00;73.20;;;;;;5007105;28;20165;-65
2021/05/12 10:47:58;;;;;;;0.22;0.22;;;13.10;71.80;;;;;;5005518;28;20180;-64
2021/05/12 10:50:46;;;;;;;0.20;0.20;;;13.10;71.50;;;;;;5004591;28;20049;-64
2021/05/12 10:53:22;;;;;;;0.10;0.10;;;13.10;70.60;;;;;;5003783;28;20096;-64
2021/05/12 10:56:00;;;;;;;0.17;0.17;;;13.20;71.20;;;;;;5006572;28;20053;-64
2021/05/12 10:58:29;;;;;;;0.15;0.15;;;13.30;71.50;;;;;;5004049;28;20042;-68
2021/05/12 11:01:10;;;;;;;0.10;0.10;;;13.40;71.00;;;;;;5011060;28;20073;-67
2021/05/12 11:03:48;;;;;;;0.25;0.20;;;13.40;71.30;;;;;;5012564;28;20057;-67
2021/05/12 11:06:22;;;;;;;0.30;0.30;;;13.40;71.90;;;;;;5011982;28;20049;-68
2021/05/12 11:09:07;;;;;;;0.30;0.13;;;13.40;71.00;;;;;;5007484;28;20046;-67
2021/05/12 11:11:54;;;;;;;0.45;0.20;;;13.50;71.50;;;;;;5010996;28;20161;-66
2021/05/12 11:14:21;;;;;;;0.20;0.20;;;13.60;71.80;;;;;;5003972;28;20094;-67
2021/05/12 11:17:12;;;;;;;0.15;0.13;;;13.70;70.20;;;;;;5009190;28;20046;-68
2021/05/12 11:19:46;;;;;;;0.20;0.20;;;13.70;70.30;;;;;;5011848;28;20092;-68
2021/05/12 11:22:37;;;;;;;0.20;0.20;;;13.80;68.60;;;;;;5010056;28;20046;-69
2021/05/12 11:33:27;;;;;;;0.10;0.10;;;13.90;66.80;;;;;;4999081;28;20099;-68
2021/05/12 11:35:59;;;;;;;0.32;0.30;;;13.90;65.70;;;;;;4994005;28;20141;-67
2021/05/12 11:38:26;;;;;;;0.20;0.20;;;13.90;65.60;;;;;;4997677;28;20508;-67
2021/05/12 11:41:04;;;;;;;0.10;0.10;;;13.90;65.90;;;;;;4995402;28;20505;-68
2021/05/12 11:43:36;;;;;;;0.20;0.20;;;14.00;65.90;;;;;;5002885;28;20109;-69
2021/05/12 11:46:52;;;;;;;0.25;0.25;;;14.20;65.70;;;;;;4999058;28;20129;-69
2021/05/12 11:49:20;;;;;;;0.10;0.10;;;14.40;63.80;;;;;;4987879;28;20046;-68
2021/05/12 11:51:48;;;;;;;0.10;0.10;;;14.40;62.40;;;;;;5002238;28;20533;-65
2021/05/12 11:54:22;;;;;;;0.10;0.10;;;14.30;62.20;;;;;;4995523;28;20052;-65
2021/05/12 11:56:50;;;;;;;0.10;0.10;;;14.20;62.20;;;;;;5006951;28;20077;-65
2021/05/12 11:59:23;;;;;;;0.75;0.17;;;14.10;61.90;;;;;;5011537;28;20181;-65
2021/05/12 12:01:57;;;;;;;0.20;0.20;;;14.10;62.00;;;;;;5011539;28;20084;-65
2021/05/12 12:04:35;;;;;;;0.10;0.10;;;14.10;62.60;;;;;;5008566;28;21082;-65
2021/05/12 12:07:04;;;;;;;0.22;0.22;;;14.00;62.30;;;;;;5011256;28;20050;-65
2021/05/12 12:09:30;;;;;;;0.10;0.10;;;14.10;62.30;;;;;;5010794;28;20140;-65
2021/05/12 12:11:58;;;;;;;0.20;0.20;;;14.10;62.30;;;;;;5010692;28;20172;-65
2021/05/12 12:14:36;;;;;;;0.20;0.10;;;14.10;62.20;;;;;;5009938;28;20168;-65
2021/05/12 12:17:12;;;;;;;0.20;0.20;;;14.10;62.50;;;;;;5008811;28;20049;-65
2021/05/12 12:19:39;;;;;;;0.10;0.10;;;14.10;62.00;;;;;;5008404;28;20093;-68
2021/05/12 12:22:05;;;;;;;0.20;0.10;;;14.20;61.90;;;;;;5011106;28;20176;-68
2021/05/12 12:24:32;;;;;;;0.10;0.10;;;14.20;62.00;;;;;;5006715;28;20141;-68
2021/05/12 12:27:00;;;;;;;0.15;0.15;;;14.20;62.40;;;;;;5013733;28;20129;-68
2021/05/12 12:29:33;;;;;;;0.20;0.10;;;14.30;62.10;;;;;;5013977;28;20125;-68
2021/05/12 12:32:06;;;;;;;0.20;0.20;;;14.30;62.20;;;;;;5007415;28;20074;-68
2021/05/12 12:34:35;;;;;;;0.22;0.10;;;14.30;61.50;;;;;;5013570;28;20132;-68
2021/05/12 12:37:07;;;;;;;0.20;0.20;;;14.30;61.40;;;;;;5014129;28;20124;-69
2021/05/12 12:39:55;;;;;;;0.38;0.20;;;14.40;61.20;;;;;;5001903;28;20057;-68
2021/05/12 12:42:25;;;;;;;0.10;0.10;;;14.40;60.60;;;;;;5001438;28;20441;-68
2021/05/12 12:44:52;;;;;;;0.20;0.20;;;14.50;60.90;;;;;;5002050;28;20054;-69
2021/05/12 12:47:22;;;;;;;0.10;0.10;;;14.70;61.40;;;;;;5013955;28;20081;-69
2021/05/12 12:50:01;;;;;;;0.20;0.10;;;14.80;60.40;;;;;;5008489;28;20050;-68
2021/05/12 12:52:30;;;;;;;0.13;0.13;;;14.90;59.30;;;;;;5002395;28;20046;-68
2021/05/12 12:55:13;;;;;;;0.22;0.22;;;15.00;59.60;;;;;;5010162;28;20092;-68
2021/05/12 12:57:47;;;;;;;0.20;0.20;;;15.00;59.20;;;;;;5014804;28;20038;-69
2021/05/12 13:00:16;;;;;;;0.13;0.13;;;15.10;59.50;;;;;;5014574;28;20128;-68
2021/05/12 13:03:06;;;;;;;0.20;0.20;;;15.10;59.70;;;;;;5012178;28;20125;-68
2021/05/12 13:05:41;;;;;;;0.25;0.20;;;15.20;59.90;;;;;;5007314;28;20102;-68
2021/05/12 13:08:18;;;;;;;0.63;0.20;;;15.30;60.10;;;;;;5005057;28;20050;-68